sensor_id;sensor_type;location;lat;lon;timestamp;P1;durP1;ratioP1;P2;durP2;ratioP2
72899;SDS011;61043;52.036;5.566;2022-09-09T00:03:47;4.68;;;1.83;;
72899;SDS011;61043;52.036;5.566;2022-09-09T00:09:04;5.30;;;2.67;;
72899;SDS011;61043;52.036;5.566;2022-09-09T00:12:01;6.15;;;3.30;;
72899;SDS011;61043;52.036;5.566;2022-09-09T00:14:39;5.50;;;3.17;;
72899;SDS011;61043;52.036;5.566;2022-09-09T00:17:35;4.20;;;2.28;;
72899;SDS011;61043;52.036;5.566;2022-09-09T00:23:12;4.82;;;2.20;;
72899;SDS011;61043;52.036;5.566;2022-09-09T00:26:02;4.05;;;2.38;;
72899;SDS011;61043;52.036;5.566;2022-09-09T00:29:03;4.72;;;2.30;;
72899;SDS011;61043;52.036;5.566;2022-09-09T00:31:29;4.43;;;2.60;;
72899;SDS011;61043;52.036;5.566;2022-09-09T00:34:46;6.32;;;3.10;;
72899;SDS011;61043;52.036;5.566;2022-09-09T00:36:52;4.63;;;2.97;;
72899;SDS011;61043;52.036;5.566;2022-09-09T00:39:37;3.75;;;2.75;;
72899;SDS011;61043;52.036;5.566;2022-09-09T00:42:15;5.95;;;3.65;;
72899;SDS011;61043;52.036;5.566;2022-09-09T00:47:50;5.90;;;3.20;;
72899;SDS011;61043;52.036;5.566;2022-09-09T00:50:25;6.80;;;3.65;;
72899;SDS011;61043;52.036;5.566;2022-09-09T00:55:56;8.38;;;4.18;;
72899;SDS011;61043;52.036;5.566;2022-09-09T00:58:37;6.75;;;3.88;;
72899;SDS011;61043;52.036;5.566;2022-09-09T01:03:43;6.38;;;3.25;;
72899;SDS011;61043;52.036;5.566;2022-09-09T01:06:27;5.03;;;3.20;;
72899;SDS011;61043;52.036;5.566;2022-09-09T01:11:32;4.70;;;3.05;;
72899;SDS011;61043;52.036;5.566;2022-09-09T01:14:13;4.80;;;2.65;;
72899;SDS011;61043;52.036;5.566;2022-09-09T01:16:40;5.50;;;2.90;;
72899;SDS011;61043;52.036;5.566;2022-09-09T01:19:09;5.03;;;2.40;;
72899;SDS011;61043;52.036;5.566;2022-09-09T01:21:53;5.82;;;2.50;;
72899;SDS011;61043;52.036;5.566;2022-09-09T01:27:00;3.85;;;2.25;;
72899;SDS011;61043;52.036;5.566;2022-09-09T01:29:28;4.70;;;2.35;;
72899;SDS011;61043;52.036;5.566;2022-09-09T01:31:59;3.17;;;1.95;;
72899;SDS011;61043;52.036;5.566;2022-09-09T01:34:33;3.47;;;2.28;;
72899;SDS011;61043;52.036;5.566;2022-09-09T01:39:34;4.20;;;2.50;;
72899;SDS011;61043;52.036;5.566;2022-09-09T01:42:02;5.38;;;2.72;;
72899;SDS011;61043;52.036;5.566;2022-09-09T01:44:31;4.80;;;3.17;;
72899;SDS011;61043;52.036;5.566;2022-09-09T01:46:58;4.53;;;2.90;;
72899;SDS011;61043;52.036;5.566;2022-09-09T01:49:24;5.28;;;3.03;;
72899;SDS011;61043;52.036;5.566;2022-09-09T01:51:52;3.88;;;2.60;;
72899;SDS011;61043;52.036;5.566;2022-09-09T01:54:21;4.80;;;2.80;;
72899;SDS011;61043;52.036;5.566;2022-09-09T01:56:54;4.70;;;2.45;;
72899;SDS011;61043;52.036;5.566;2022-09-09T02:02:30;7.45;;;2.85;;
72899;SDS011;61043;52.036;5.566;2022-09-09T02:05:07;6.47;;;3.20;;
72899;SDS011;61043;52.036;5.566;2022-09-09T02:07:46;5.05;;;3.03;;
72899;SDS011;61043;52.036;5.566;2022-09-09T02:10:21;4.40;;;3.08;;
72899;SDS011;61043;52.036;5.566;2022-09-09T02:13:15;4.50;;;2.92;;
72899;SDS011;61043;52.036;5.566;2022-09-09T02:18:38;6.15;;;3.45;;
72899;SDS011;61043;52.036;5.566;2022-09-09T02:21:09;5.03;;;3.25;;
72899;SDS011;61043;52.036;5.566;2022-09-09T02:23:37;5.43;;;3.17;;
72899;SDS011;61043;52.036;5.566;2022-09-09T02:26:07;5.05;;;3.10;;
72899;SDS011;61043;52.036;5.566;2022-09-09T02:28:37;5.28;;;3.17;;
72899;SDS011;61043;52.036;5.566;2022-09-09T02:31:05;3.63;;;2.70;;
72899;SDS011;61043;52.036;5.566;2022-09-09T02:33:36;5.40;;;3.47;;
72899;SDS011;61043;52.036;5.566;2022-09-09T02:36:06;3.85;;;2.97;;
72899;SDS011;61043;52.036;5.566;2022-09-09T02:38:35;6.97;;;3.20;;
72899;SDS011;61043;52.036;5.566;2022-09-09T02:41:06;5.63;;;2.97;;
72899;SDS011;61043;52.036;5.566;2022-09-09T02:43:33;4.57;;;2.95;;
72899;SDS011;61043;52.036;5.566;2022-09-09T02:46:08;4.03;;;2.83;;
72899;SDS011;61043;52.036;5.566;2022-09-09T02:48:51;5.15;;;3.20;;
72899;SDS011;61043;52.036;5.566;2022-09-09T02:54:20;4.63;;;2.70;;
72899;SDS011;61043;52.036;5.566;2022-09-09T02:56:51;4.25;;;2.90;;
72899;SDS011;61043;52.036;5.566;2022-09-09T02:59:20;5.55;;;2.90;;
72899;SDS011;61043;52.036;5.566;2022-09-09T03:01:47;7.10;;;2.92;;
72899;SDS011;61043;52.036;5.566;2022-09-09T03:04:14;4.65;;;3.20;;
72899;SDS011;61043;52.036;5.566;2022-09-09T03:06:40;5.97;;;3.40;;
72899;SDS011;61043;52.036;5.566;2022-09-09T03:09:07;7.35;;;2.90;;
72899;SDS011;61043;52.036;5.566;2022-09-09T03:11:36;4.10;;;2.65;;
72899;SDS011;61043;52.036;5.566;2022-09-09T03:14:04;4.53;;;3.13;;
72899;SDS011;61043;52.036;5.566;2022-09-09T03:16:31;4.75;;;2.75;;
72899;SDS011;61043;52.036;5.566;2022-09-09T03:19:00;5.45;;;2.88;;
72899;SDS011;61043;52.036;5.566;2022-09-09T03:21:27;4.80;;;2.95;;
72899;SDS011;61043;52.036;5.566;2022-09-09T03:23:53;4.55;;;3.03;;
72899;SDS011;61043;52.036;5.566;2022-09-09T03:26:20;5.85;;;2.90;;
72899;SDS011;61043;52.036;5.566;2022-09-09T03:28:47;5.80;;;3.10;;
72899;SDS011;61043;52.036;5.566;2022-09-09T03:31:13;5.32;;;3.10;;
72899;SDS011;61043;52.036;5.566;2022-09-09T03:33:40;8.23;;;3.40;;
72899;SDS011;61043;52.036;5.566;2022-09-09T03:36:07;5.25;;;3.15;;
72899;SDS011;61043;52.036;5.566;2022-09-09T03:38:34;5.75;;;3.13;;
72899;SDS011;61043;52.036;5.566;2022-09-09T03:41:01;7.13;;;2.92;;
72899;SDS011;61043;52.036;5.566;2022-09-09T03:43:28;6.28;;;3.38;;
72899;SDS011;61043;52.036;5.566;2022-09-09T03:45:55;7.50;;;3.10;;
72899;SDS011;61043;52.036;5.566;2022-09-09T03:48:25;4.25;;;3.15;;
72899;SDS011;61043;52.036;5.566;2022-09-09T03:50:54;5.82;;;3.08;;
72899;SDS011;61043;52.036;5.566;2022-09-09T03:53:22;7.22;;;3.58;;
72899;SDS011;61043;52.036;5.566;2022-09-09T03:55:51;4.65;;;3.40;;
72899;SDS011;61043;52.036;5.566;2022-09-09T03:58:23;10.60;;;5.93;;
72899;SDS011;61043;52.036;5.566;2022-09-09T04:00:54;8.55;;;4.18;;
72899;SDS011;61043;52.036;5.566;2022-09-09T04:03:25;5.35;;;3.40;;
72899;SDS011;61043;52.036;5.566;2022-09-09T04:05:54;7.30;;;3.67;;
72899;SDS011;61043;52.036;5.566;2022-09-09T04:08:22;9.07;;;3.60;;
72899;SDS011;61043;52.036;5.566;2022-09-09T04:10:51;8.45;;;3.72;;
72899;SDS011;61043;52.036;5.566;2022-09-09T04:13:19;6.45;;;3.15;;
72899;SDS011;61043;52.036;5.566;2022-09-09T04:15:52;5.00;;;3.30;;
72899;SDS011;61043;52.036;5.566;2022-09-09T04:18:19;6.43;;;3.80;;
72899;SDS011;61043;52.036;5.566;2022-09-09T04:20:47;5.53;;;3.35;;
72899;SDS011;61043;52.036;5.566;2022-09-09T04:23:14;6.80;;;3.60;;
72899;SDS011;61043;52.036;5.566;2022-09-09T04:25:45;5.32;;;2.92;;
72899;SDS011;61043;52.036;5.566;2022-09-09T04:28:13;7.82;;;3.58;;
72899;SDS011;61043;52.036;5.566;2022-09-09T04:30:41;7.80;;;3.40;;
72899;SDS011;61043;52.036;5.566;2022-09-09T04:33:08;5.78;;;3.30;;
72899;SDS011;61043;52.036;5.566;2022-09-09T04:35:36;5.40;;;3.38;;
72899;SDS011;61043;52.036;5.566;2022-09-09T04:38:02;7.15;;;3.25;;
72899;SDS011;61043;52.036;5.566;2022-09-09T04:40:30;6.18;;;3.65;;
72899;SDS011;61043;52.036;5.566;2022-09-09T04:42:57;5.18;;;3.30;;
72899;SDS011;61043;52.036;5.566;2022-09-09T04:45:25;8.32;;;3.70;;
72899;SDS011;61043;52.036;5.566;2022-09-09T04:47:52;4.43;;;2.78;;
72899;SDS011;61043;52.036;5.566;2022-09-09T04:50:20;7.25;;;3.92;;
72899;SDS011;61043;52.036;5.566;2022-09-09T04:52:46;7.78;;;3.58;;
72899;SDS011;61043;52.036;5.566;2022-09-09T04:55:13;5.30;;;3.78;;
72899;SDS011;61043;52.036;5.566;2022-09-09T04:57:40;4.80;;;3.30;;
72899;SDS011;61043;52.036;5.566;2022-09-09T05:00:07;6.63;;;3.40;;
72899;SDS011;61043;52.036;5.566;2022-09-09T05:02:36;8.20;;;4.47;;
72899;SDS011;61043;52.036;5.566;2022-09-09T05:05:05;5.63;;;3.45;;
72899;SDS011;61043;52.036;5.566;2022-09-09T05:07:32;9.10;;;3.83;;
72899;SDS011;61043;52.036;5.566;2022-09-09T05:09:58;7.13;;;3.80;;
72899;SDS011;61043;52.036;5.566;2022-09-09T05:12:25;7.47;;;3.65;;
72899;SDS011;61043;52.036;5.566;2022-09-09T05:14:52;7.65;;;3.53;;
72899;SDS011;61043;52.036;5.566;2022-09-09T05:17:18;5.85;;;3.17;;
72899;SDS011;61043;52.036;5.566;2022-09-09T05:19:45;5.40;;;3.25;;
72899;SDS011;61043;52.036;5.566;2022-09-09T05:22:11;4.65;;;3.10;;
72899;SDS011;61043;52.036;5.566;2022-09-09T05:24:38;6.50;;;3.13;;
72899;SDS011;61043;52.036;5.566;2022-09-09T05:27:04;9.85;;;3.50;;
72899;SDS011;61043;52.036;5.566;2022-09-09T05:29:32;6.13;;;3.30;;
72899;SDS011;61043;52.036;5.566;2022-09-09T05:32:01;7.50;;;3.30;;
72899;SDS011;61043;52.036;5.566;2022-09-09T05:34:28;6.70;;;3.20;;
72899;SDS011;61043;52.036;5.566;2022-09-09T05:36:55;7.75;;;3.20;;
72899;SDS011;61043;52.036;5.566;2022-09-09T05:39:21;6.32;;;3.75;;
72899;SDS011;61043;52.036;5.566;2022-09-09T05:41:48;7.35;;;3.30;;
72899;SDS011;61043;52.036;5.566;2022-09-09T05:44:14;4.85;;;3.08;;
72899;SDS011;61043;52.036;5.566;2022-09-09T05:46:43;7.82;;;2.83;;
72899;SDS011;61043;52.036;5.566;2022-09-09T05:49:10;8.07;;;2.80;;
72899;SDS011;61043;52.036;5.566;2022-09-09T05:51:37;8.48;;;3.20;;
72899;SDS011;61043;52.036;5.566;2022-09-09T05:54:04;5.35;;;3.00;;
72899;SDS011;61043;52.036;5.566;2022-09-09T05:56:30;6.68;;;2.97;;
72899;SDS011;61043;52.036;5.566;2022-09-09T05:58:59;8.23;;;2.83;;
72899;SDS011;61043;52.036;5.566;2022-09-09T06:01:31;6.68;;;3.20;;
72899;SDS011;61043;52.036;5.566;2022-09-09T06:03:59;11.00;;;3.30;;
72899;SDS011;61043;52.036;5.566;2022-09-09T06:06:26;7.43;;;3.05;;
72899;SDS011;61043;52.036;5.566;2022-09-09T06:09:03;6.32;;;3.15;;
72899;SDS011;61043;52.036;5.566;2022-09-09T06:11:37;9.82;;;3.05;;
72899;SDS011;61043;52.036;5.566;2022-09-09T06:14:05;6.82;;;3.30;;
72899;SDS011;61043;52.036;5.566;2022-09-09T06:16:32;7.90;;;4.13;;
72899;SDS011;61043;52.036;5.566;2022-09-09T06:19:00;7.50;;;3.10;;
72899;SDS011;61043;52.036;5.566;2022-09-09T06:21:28;9.65;;;3.10;;
72899;SDS011;61043;52.036;5.566;2022-09-09T06:23:56;9.10;;;4.47;;
72899;SDS011;61043;52.036;5.566;2022-09-09T06:26:32;9.60;;;4.47;;
72899;SDS011;61043;52.036;5.566;2022-09-09T06:29:00;9.90;;;3.80;;
72899;SDS011;61043;52.036;5.566;2022-09-09T06:31:30;7.22;;;3.42;;
72899;SDS011;61043;52.036;5.566;2022-09-09T06:33:58;9.65;;;3.83;;
72899;SDS011;61043;52.036;5.566;2022-09-09T06:36:28;8.50;;;4.30;;
72899;SDS011;61043;52.036;5.566;2022-09-09T06:38:57;11.40;;;4.88;;
72899;SDS011;61043;52.036;5.566;2022-09-09T06:41:25;9.35;;;4.10;;
72899;SDS011;61043;52.036;5.566;2022-09-09T06:43:55;11.27;;;4.10;;
72899;SDS011;61043;52.036;5.566;2022-09-09T06:46:23;10.45;;;3.75;;
72899;SDS011;61043;52.036;5.566;2022-09-09T06:48:54;8.27;;;3.92;;
72899;SDS011;61043;52.036;5.566;2022-09-09T06:51:22;8.85;;;3.97;;
72899;SDS011;61043;52.036;5.566;2022-09-09T06:53:50;9.52;;;3.53;;
72899;SDS011;61043;52.036;5.566;2022-09-09T06:56:21;8.80;;;3.50;;
72899;SDS011;61043;52.036;5.566;2022-09-09T06:58:50;11.00;;;3.63;;
72899;SDS011;61043;52.036;5.566;2022-09-09T07:01:22;7.30;;;3.13;;
72899;SDS011;61043;52.036;5.566;2022-09-09T07:03:51;12.02;;;4.13;;
72899;SDS011;61043;52.036;5.566;2022-09-09T07:06:20;13.48;;;3.83;;
72899;SDS011;61043;52.036;5.566;2022-09-09T07:08:50;8.52;;;3.35;;
72899;SDS011;61043;52.036;5.566;2022-09-09T07:11:22;9.05;;;3.42;;
72899;SDS011;61043;52.036;5.566;2022-09-09T07:13:53;5.70;;;2.65;;
72899;SDS011;61043;52.036;5.566;2022-09-09T07:16:20;6.82;;;3.17;;
72899;SDS011;61043;52.036;5.566;2022-09-09T07:21:27;9.82;;;3.30;;
72899;SDS011;61043;52.036;5.566;2022-09-09T07:23:54;8.95;;;3.63;;
72899;SDS011;61043;52.036;5.566;2022-09-09T07:26:26;11.70;;;3.58;;
72899;SDS011;61043;52.036;5.566;2022-09-09T07:28:54;8.27;;;3.00;;
72899;SDS011;61043;52.036;5.566;2022-09-09T07:31:24;9.48;;;3.20;;
72899;SDS011;61043;52.036;5.566;2022-09-09T07:36:21;9.75;;;3.60;;
72899;SDS011;61043;52.036;5.566;2022-09-09T07:38:54;6.80;;;3.17;;
72899;SDS011;61043;52.036;5.566;2022-09-09T07:41:26;7.03;;;2.80;;
72899;SDS011;61043;52.036;5.566;2022-09-09T07:43:56;11.57;;;3.85;;
72899;SDS011;61043;52.036;5.566;2022-09-09T07:46:23;8.30;;;3.30;;
72899;SDS011;61043;52.036;5.566;2022-09-09T07:48:52;7.80;;;3.10;;
72899;SDS011;61043;52.036;5.566;2022-09-09T07:51:31;11.73;;;3.10;;
72899;SDS011;61043;52.036;5.566;2022-09-09T07:54:00;12.18;;;3.03;;
72899;SDS011;61043;52.036;5.566;2022-09-09T07:56:29;5.90;;;2.72;;
72899;SDS011;61043;52.036;5.566;2022-09-09T07:58:59;5.13;;;2.53;;
72899;SDS011;61043;52.036;5.566;2022-09-09T08:01:29;8.40;;;2.75;;
72899;SDS011;61043;52.036;5.566;2022-09-09T08:03:59;4.80;;;2.10;;
72899;SDS011;61043;52.036;5.566;2022-09-09T08:06:28;12.23;;;3.03;;
72899;SDS011;61043;52.036;5.566;2022-09-09T08:08:57;7.78;;;2.47;;
72899;SDS011;61043;52.036;5.566;2022-09-09T08:11:24;10.88;;;3.20;;
72899;SDS011;61043;52.036;5.566;2022-09-09T08:13:53;10.65;;;3.22;;
72899;SDS011;61043;52.036;5.566;2022-09-09T08:16:27;8.25;;;2.53;;
72899;SDS011;61043;52.036;5.566;2022-09-09T08:18:56;8.90;;;2.83;;
72899;SDS011;61043;52.036;5.566;2022-09-09T08:21:25;8.30;;;2.80;;
72899;SDS011;61043;52.036;5.566;2022-09-09T08:23:56;7.45;;;2.80;;
72899;SDS011;61043;52.036;5.566;2022-09-09T08:28:55;5.32;;;2.70;;
72899;SDS011;61043;52.036;5.566;2022-09-09T08:31:27;6.40;;;2.72;;
72899;SDS011;61043;52.036;5.566;2022-09-09T08:33:56;8.07;;;2.85;;
72899;SDS011;61043;52.036;5.566;2022-09-09T08:36:26;7.40;;;2.70;;
72899;SDS011;61043;52.036;5.566;2022-09-09T08:38:55;6.47;;;2.30;;
72899;SDS011;61043;52.036;5.566;2022-09-09T08:47:40;10.18;;;2.85;;
72899;SDS011;61043;52.036;5.566;2022-09-09T08:50:21;10.73;;;3.17;;
72899;SDS011;61043;52.036;5.566;2022-09-09T08:52:55;6.28;;;2.95;;
72899;SDS011;61043;52.036;5.566;2022-09-09T08:58:20;8.40;;;3.17;;
72899;SDS011;61043;52.036;5.566;2022-09-09T09:03:41;10.30;;;3.20;;
72899;SDS011;61043;52.036;5.566;2022-09-09T09:06:26;7.75;;;2.70;;
72899;SDS011;61043;52.036;5.566;2022-09-09T09:09:05;10.80;;;3.05;;
72899;SDS011;61043;52.036;5.566;2022-09-09T09:11:53;8.38;;;2.63;;
72899;SDS011;61043;52.036;5.566;2022-09-09T09:14:24;10.20;;;2.95;;
72899;SDS011;61043;52.036;5.566;2022-09-09T09:16:53;6.45;;;2.50;;
72899;SDS011;61043;52.036;5.566;2022-09-09T09:19:39;8.52;;;2.95;;
72899;SDS011;61043;52.036;5.566;2022-09-09T09:27:18;9.38;;;2.40;;
72899;SDS011;61043;52.036;5.566;2022-09-09T09:29:48;9.60;;;3.17;;
72899;SDS011;61043;52.036;5.566;2022-09-09T09:32:36;10.95;;;3.20;;
72899;SDS011;61043;52.036;5.566;2022-09-09T09:35:12;7.95;;;3.20;;
72899;SDS011;61043;52.036;5.566;2022-09-09T09:37:40;6.63;;;3.22;;
72899;SDS011;61043;52.036;5.566;2022-09-09T09:40:27;9.80;;;3.47;;
72899;SDS011;61043;52.036;5.566;2022-09-09T09:42:55;8.82;;;2.92;;
72899;SDS011;61043;52.036;5.566;2022-09-09T09:45:43;7.25;;;2.80;;
72899;SDS011;61043;52.036;5.566;2022-09-09T09:48:33;9.98;;;3.08;;
72899;SDS011;61043;52.036;5.566;2022-09-09T09:51:08;8.30;;;2.60;;
72899;SDS011;61043;52.036;5.566;2022-09-09T09:53:38;12.40;;;3.50;;
72899;SDS011;61043;52.036;5.566;2022-09-09T09:56:06;10.10;;;3.25;;
72899;SDS011;61043;52.036;5.566;2022-09-09T09:58:48;6.72;;;2.47;;
72899;SDS011;61043;52.036;5.566;2022-09-09T10:01:20;6.97;;;2.95;;
72899;SDS011;61043;52.036;5.566;2022-09-09T10:03:51;9.32;;;2.97;;
72899;SDS011;61043;52.036;5.566;2022-09-09T10:06:32;10.88;;;2.88;;
72899;SDS011;61043;52.036;5.566;2022-09-09T10:09:01;9.75;;;3.10;;
72899;SDS011;61043;52.036;5.566;2022-09-09T10:20:17;8.88;;;3.20;;
72899;SDS011;61043;52.036;5.566;2022-09-09T10:23:10;10.93;;;2.75;;
72899;SDS011;61043;52.036;5.566;2022-09-09T10:26:04;9.15;;;3.13;;
72899;SDS011;61043;52.036;5.566;2022-09-09T10:32:06;7.22;;;3.05;;
72899;SDS011;61043;52.036;5.566;2022-09-09T10:37:18;8.02;;;2.70;;
72899;SDS011;61043;52.036;5.566;2022-09-09T10:40:00;5.65;;;2.08;;
72899;SDS011;61043;52.036;5.566;2022-09-09T10:42:38;9.32;;;2.75;;
72899;SDS011;61043;52.036;5.566;2022-09-09T10:45:15;8.65;;;2.55;;
72899;SDS011;61043;52.036;5.566;2022-09-09T10:47:49;6.97;;;2.78;;
72899;SDS011;61043;52.036;5.566;2022-09-09T10:50:53;8.43;;;2.60;;
72899;SDS011;61043;52.036;5.566;2022-09-09T10:56:20;8.45;;;3.05;;
72899;SDS011;61043;52.036;5.566;2022-09-09T11:01:30;8.63;;;3.95;;
72899;SDS011;61043;52.036;5.566;2022-09-09T11:04:10;7.70;;;3.38;;
72899;SDS011;61043;52.036;5.566;2022-09-09T11:06:44;9.52;;;3.35;;
72899;SDS011;61043;52.036;5.566;2022-09-09T11:09:19;6.43;;;3.53;;
72899;SDS011;61043;52.036;5.566;2022-09-09T11:11:55;7.10;;;3.72;;
72899;SDS011;61043;52.036;5.566;2022-09-09T11:14:26;10.02;;;3.55;;
72899;SDS011;61043;52.036;5.566;2022-09-09T11:17:20;8.02;;;3.60;;
72899;SDS011;61043;52.036;5.566;2022-09-09T11:19:50;8.82;;;4.30;;
72899;SDS011;61043;52.036;5.566;2022-09-09T11:22:33;9.60;;;3.90;;
72899;SDS011;61043;52.036;5.566;2022-09-09T11:25:06;5.22;;;3.08;;
72899;SDS011;61043;52.036;5.566;2022-09-09T11:30:19;8.98;;;3.50;;
72899;SDS011;61043;52.036;5.566;2022-09-09T11:33:29;8.30;;;3.60;;
72899;SDS011;61043;52.036;5.566;2022-09-09T11:41:07;8.63;;;3.80;;
72899;SDS011;61043;52.036;5.566;2022-09-09T11:43:43;7.05;;;3.72;;
72899;SDS011;61043;52.036;5.566;2022-09-09T11:46:12;10.75;;;3.55;;
72899;SDS011;61043;52.036;5.566;2022-09-09T11:48:44;14.50;;;4.38;;
72899;SDS011;61043;52.036;5.566;2022-09-09T11:53:59;7.60;;;3.70;;
72899;SDS011;61043;52.036;5.566;2022-09-09T11:56:46;6.20;;;3.00;;
72899;SDS011;61043;52.036;5.566;2022-09-09T11:59:29;8.77;;;3.08;;
72899;SDS011;61043;52.036;5.566;2022-09-09T12:04:49;7.05;;;3.33;;
72899;SDS011;61043;52.036;5.566;2022-09-09T12:12:47;7.53;;;2.70;;
72899;SDS011;61043;52.036;5.566;2022-09-09T12:15:18;7.68;;;3.40;;
72899;SDS011;61043;52.036;5.566;2022-09-09T12:17:49;7.60;;;3.20;;
72899;SDS011;61043;52.036;5.566;2022-09-09T12:20:31;8.90;;;4.10;;
72899;SDS011;61043;52.036;5.566;2022-09-09T12:25:57;10.25;;;3.65;;
72899;SDS011;61043;52.036;5.566;2022-09-09T12:34:02;8.05;;;3.00;;
72899;SDS011;61043;52.036;5.566;2022-09-09T12:36:53;7.05;;;3.40;;
72899;SDS011;61043;52.036;5.566;2022-09-09T12:41:53;7.60;;;3.45;;
72899;SDS011;61043;52.036;5.566;2022-09-09T12:46:51;9.60;;;3.72;;
72899;SDS011;61043;52.036;5.566;2022-09-09T12:49:35;9.32;;;3.45;;
72899;SDS011;61043;52.036;5.566;2022-09-09T12:52:06;6.82;;;3.25;;
72899;SDS011;61043;52.036;5.566;2022-09-09T12:54:42;8.07;;;3.00;;
72899;SDS011;61043;52.036;5.566;2022-09-09T12:57:12;6.10;;;2.97;;
72899;SDS011;61043;52.036;5.566;2022-09-09T12:59:41;7.35;;;3.13;;
72899;SDS011;61043;52.036;5.566;2022-09-09T13:04:45;7.78;;;2.70;;
72899;SDS011;61043;52.036;5.566;2022-09-09T13:07:13;5.55;;;2.75;;
72899;SDS011;61043;52.036;5.566;2022-09-09T13:09:42;8.85;;;2.85;;
72899;SDS011;61043;52.036;5.566;2022-09-09T13:12:14;8.20;;;2.60;;
72899;SDS011;61043;52.036;5.566;2022-09-09T13:14:45;7.95;;;2.65;;
72899;SDS011;61043;52.036;5.566;2022-09-09T13:17:16;9.32;;;2.63;;
72899;SDS011;61043;52.036;5.566;2022-09-09T13:19:48;6.43;;;2.55;;
72899;SDS011;61043;52.036;5.566;2022-09-09T13:22:20;6.07;;;2.55;;
72899;SDS011;61043;52.036;5.566;2022-09-09T13:27:38;5.22;;;2.25;;
72899;SDS011;61043;52.036;5.566;2022-09-09T13:38:13;8.25;;;2.72;;
72899;SDS011;61043;52.036;5.566;2022-09-09T13:40:51;7.05;;;2.58;;
72899;SDS011;61043;52.036;5.566;2022-09-09T13:43:21;5.68;;;2.55;;
72899;SDS011;61043;52.036;5.566;2022-09-09T13:46:32;6.10;;;3.13;;
72899;SDS011;61043;52.036;5.566;2022-09-09T13:48:58;5.30;;;2.72;;
72899;SDS011;61043;52.036;5.566;2022-09-09T13:54:09;6.15;;;2.85;;
72899;SDS011;61043;52.036;5.566;2022-09-09T13:56:37;6.75;;;2.97;;
72899;SDS011;61043;52.036;5.566;2022-09-09T13:59:05;5.93;;;2.50;;
72899;SDS011;61043;52.036;5.566;2022-09-09T14:01:35;5.53;;;3.00;;
72899;SDS011;61043;52.036;5.566;2022-09-09T14:04:03;7.45;;;2.75;;
72899;SDS011;61043;52.036;5.566;2022-09-09T14:06:29;8.43;;;2.58;;
72899;SDS011;61043;52.036;5.566;2022-09-09T14:08:56;3.70;;;2.30;;
72899;SDS011;61043;52.036;5.566;2022-09-09T14:11:22;6.70;;;2.42;;
72899;SDS011;61043;52.036;5.566;2022-09-09T14:13:49;5.55;;;2.40;;
72899;SDS011;61043;52.036;5.566;2022-09-09T14:16:16;6.50;;;2.50;;
72899;SDS011;61043;52.036;5.566;2022-09-09T14:18:43;5.82;;;2.50;;
72899;SDS011;61043;52.036;5.566;2022-09-09T14:21:11;7.60;;;2.80;;
72899;SDS011;61043;52.036;5.566;2022-09-09T14:23:38;7.78;;;2.80;;
72899;SDS011;61043;52.036;5.566;2022-09-09T14:26:05;4.63;;;2.90;;
72899;SDS011;61043;52.036;5.566;2022-09-09T14:28:32;7.47;;;2.85;;
72899;SDS011;61043;52.036;5.566;2022-09-09T14:31:19;6.72;;;3.00;;
72899;SDS011;61043;52.036;5.566;2022-09-09T14:33:47;7.75;;;3.35;;
72899;SDS011;61043;52.036;5.566;2022-09-09T14:36:13;6.22;;;2.80;;
72899;SDS011;61043;52.036;5.566;2022-09-09T14:38:41;6.47;;;3.08;;
72899;SDS011;61043;52.036;5.566;2022-09-09T14:41:09;5.20;;;2.40;;
72899;SDS011;61043;52.036;5.566;2022-09-09T14:43:37;8.20;;;2.97;;
72899;SDS011;61043;52.036;5.566;2022-09-09T14:46:05;7.03;;;2.90;;
72899;SDS011;61043;52.036;5.566;2022-09-09T14:48:33;9.10;;;3.60;;
72899;SDS011;61043;52.036;5.566;2022-09-09T14:51:08;7.20;;;2.85;;
72899;SDS011;61043;52.036;5.566;2022-09-09T14:53:36;5.75;;;2.88;;
72899;SDS011;61043;52.036;5.566;2022-09-09T14:56:11;7.78;;;2.80;;
72899;SDS011;61043;52.036;5.566;2022-09-09T14:58:39;7.78;;;3.03;;
72899;SDS011;61043;52.036;5.566;2022-09-09T15:01:08;7.90;;;2.83;;
72899;SDS011;61043;52.036;5.566;2022-09-09T15:03:37;5.45;;;2.63;;
72899;SDS011;61043;52.036;5.566;2022-09-09T15:06:11;6.93;;;3.33;;
72899;SDS011;61043;52.036;5.566;2022-09-09T15:08:40;7.45;;;2.70;;
72899;SDS011;61043;52.036;5.566;2022-09-09T15:11:09;5.00;;;2.78;;
72899;SDS011;61043;52.036;5.566;2022-09-09T15:13:38;5.55;;;2.65;;
72899;SDS011;61043;52.036;5.566;2022-09-09T15:16:06;6.88;;;2.30;;
72899;SDS011;61043;52.036;5.566;2022-09-09T15:18:34;4.38;;;2.40;;
72899;SDS011;61043;52.036;5.566;2022-09-09T15:21:05;3.67;;;2.05;;
72899;SDS011;61043;52.036;5.566;2022-09-09T15:23:32;6.53;;;2.30;;
72899;SDS011;61043;52.036;5.566;2022-09-09T15:25:59;4.55;;;2.00;;
72899;SDS011;61043;52.036;5.566;2022-09-09T15:28:25;6.20;;;2.20;;
72899;SDS011;61043;52.036;5.566;2022-09-09T15:30:52;4.25;;;2.15;;
72899;SDS011;61043;52.036;5.566;2022-09-09T15:33:20;3.38;;;2.00;;
72899;SDS011;61043;52.036;5.566;2022-09-09T15:35:48;6.65;;;2.55;;
72899;SDS011;61043;52.036;5.566;2022-09-09T15:38:16;7.95;;;2.40;;
72899;SDS011;61043;52.036;5.566;2022-09-09T15:40:43;5.63;;;2.38;;
72899;SDS011;61043;52.036;5.566;2022-09-09T15:43:10;4.72;;;2.40;;
72899;SDS011;61043;52.036;5.566;2022-09-09T15:45:37;5.80;;;2.50;;
72899;SDS011;61043;52.036;5.566;2022-09-09T15:48:03;4.13;;;2.25;;
72899;SDS011;61043;52.036;5.566;2022-09-09T15:50:30;7.45;;;2.53;;
72899;SDS011;61043;52.036;5.566;2022-09-09T15:52:58;4.75;;;2.40;;
72899;SDS011;61043;52.036;5.566;2022-09-09T15:55:25;5.30;;;2.30;;
72899;SDS011;61043;52.036;5.566;2022-09-09T15:57:52;3.95;;;1.75;;
72899;SDS011;61043;52.036;5.566;2022-09-09T16:00:19;3.97;;;1.70;;
72899;SDS011;61043;52.036;5.566;2022-09-09T16:02:46;3.17;;;1.90;;
72899;SDS011;61043;52.036;5.566;2022-09-09T16:05:13;4.45;;;1.77;;
72899;SDS011;61043;52.036;5.566;2022-09-09T16:07:40;3.55;;;1.67;;
72899;SDS011;61043;52.036;5.566;2022-09-09T16:10:08;2.97;;;1.80;;
72899;SDS011;61043;52.036;5.566;2022-09-09T16:12:35;3.65;;;1.70;;
72899;SDS011;61043;52.036;5.566;2022-09-09T16:15:02;4.82;;;1.95;;
72899;SDS011;61043;52.036;5.566;2022-09-09T16:17:29;5.43;;;1.98;;
72899;SDS011;61043;52.036;5.566;2022-09-09T16:19:55;3.20;;;1.65;;
72899;SDS011;61043;52.036;5.566;2022-09-09T16:22:23;4.10;;;1.63;;
72899;SDS011;61043;52.036;5.566;2022-09-09T16:24:50;3.70;;;1.98;;
72899;SDS011;61043;52.036;5.566;2022-09-09T16:27:17;3.78;;;1.80;;
72899;SDS011;61043;52.036;5.566;2022-09-09T16:29:44;3.47;;;1.98;;
72899;SDS011;61043;52.036;5.566;2022-09-09T16:32:11;4.25;;;1.70;;
72899;SDS011;61043;52.036;5.566;2022-09-09T16:34:38;4.00;;;1.80;;
72899;SDS011;61043;52.036;5.566;2022-09-09T16:37:04;4.40;;;1.95;;
72899;SDS011;61043;52.036;5.566;2022-09-09T16:39:31;5.45;;;2.08;;
72899;SDS011;61043;52.036;5.566;2022-09-09T16:41:57;3.83;;;2.00;;
72899;SDS011;61043;52.036;5.566;2022-09-09T16:44:24;2.95;;;1.70;;
72899;SDS011;61043;52.036;5.566;2022-09-09T16:46:52;3.33;;;1.90;;
72899;SDS011;61043;52.036;5.566;2022-09-09T16:49:25;6.35;;;2.17;;
72899;SDS011;61043;52.036;5.566;2022-09-09T16:51:53;3.55;;;1.70;;
72899;SDS011;61043;52.036;5.566;2022-09-09T16:54:23;4.23;;;2.30;;
72899;SDS011;61043;52.036;5.566;2022-09-09T16:56:52;3.47;;;2.10;;
72899;SDS011;61043;52.036;5.566;2022-09-09T16:59:20;5.03;;;2.10;;
72899;SDS011;61043;52.036;5.566;2022-09-09T17:01:48;2.80;;;1.88;;
72899;SDS011;61043;52.036;5.566;2022-09-09T17:04:26;5.05;;;2.25;;
72899;SDS011;61043;52.036;5.566;2022-09-09T17:06:54;5.90;;;2.65;;
72899;SDS011;61043;52.036;5.566;2022-09-09T17:09:22;4.00;;;2.40;;
72899;SDS011;61043;52.036;5.566;2022-09-09T17:11:49;3.40;;;2.28;;
72899;SDS011;61043;52.036;5.566;2022-09-09T17:14:19;5.15;;;2.53;;
72899;SDS011;61043;52.036;5.566;2022-09-09T17:16:47;5.60;;;2.35;;